createdAt,value
2023-09-08T00:03:35.825Z,3.88
2023-09-08T00:08:34.461Z,3.50
2023-09-08T00:13:32.997Z,3.90
2023-09-08T00:18:33.127Z,3.55
2023-09-08T00:23:31.586Z,3.28
2023-09-08T00:28:29.777Z,3.70
2023-09-08T00:33:28.112Z,3.60
2023-09-08T00:38:27.862Z,3.80
2023-09-08T00:43:26.055Z,3.20
2023-09-08T00:48:24.444Z,3.75
2023-09-08T00:53:23.043Z,4.07
2023-09-08T00:58:22.704Z,3.90
2023-09-08T01:03:21.270Z,4.20
2023-09-08T01:08:19.788Z,4.00
2023-09-08T01:13:17.964Z,3.95
2023-09-08T01:18:17.660Z,4.43
2023-09-08T01:23:23.412Z,3.60
2023-09-08T01:28:24.917Z,4.05
2023-09-08T01:33:24.070Z,4.25
2023-09-08T01:38:23.362Z,4.10
2023-09-08T01:43:22.953Z,4.40
2023-09-08T01:48:21.161Z,5.03
2023-09-08T01:53:19.371Z,4.68
2023-09-08T01:58:17.587Z,5.15
2023-09-08T02:03:17.875Z,4.97
2023-09-08T02:08:16.113Z,5.55
2023-09-08T02:13:14.379Z,4.43
2023-09-08T02:18:13.030Z,4.95
2023-09-08T02:23:13.408Z,4.55
2023-09-08T02:28:11.670Z,5.20
2023-09-08T02:33:11.285Z,5.22
2023-09-08T02:38:09.631Z,4.57
2023-09-08T02:43:10.002Z,4.90
2023-09-08T02:48:08.398Z,5.85
2023-09-08T02:53:06.765Z,5.30
2023-09-08T02:58:05.931Z,5.03
2023-09-08T03:03:05.990Z,4.65
2023-09-08T03:08:04.443Z,5.38
2023-09-08T03:13:02.785Z,5.82
2023-09-08T03:18:01.067Z,4.28
2023-09-08T03:23:00.853Z,5.15
2023-09-08T03:27:59.111Z,5.65
2023-09-08T03:32:57.434Z,6.10
2023-09-08T03:37:56.180Z,4.60
2023-09-08T03:42:56.199Z,5.82
2023-09-08T03:47:55.324Z,5.38
2023-09-08T03:52:54.432Z,5.78
2023-09-08T03:57:53.007Z,5.72
2023-09-08T04:02:53.295Z,5.00
2023-09-08T04:07:51.857Z,5.13
2023-09-08T04:12:50.424Z,5.68
2023-09-08T04:17:48.997Z,5.93
2023-09-08T04:22:48.919Z,4.70
2023-09-08T04:27:47.482Z,4.72
2023-09-08T04:32:46.110Z,4.50
2023-09-08T04:37:44.377Z,4.78
2023-09-08T04:42:43.973Z,4.55
2023-09-08T04:47:43.603Z,4.80
2023-09-08T04:52:42.279Z,5.15
2023-09-08T04:57:41.831Z,4.70
2023-09-08T05:02:41.999Z,4.85
2023-09-08T05:07:40.293Z,4.40
2023-09-08T05:12:38.620Z,5.03
2023-09-08T05:17:36.973Z,4.63
2023-09-08T05:22:37.607Z,5.05
2023-09-08T05:27:36.523Z,4.95
2023-09-08T05:32:35.366Z,4.22
2023-09-08T05:37:33.986Z,4.60
2023-09-08T05:42:33.658Z,5.13
2023-09-08T05:47:34.583Z,4.50
2023-09-08T05:52:34.616Z,4.82
2023-09-08T05:57:35.892Z,3.88
2023-09-08T06:02:34.491Z,4.28
2023-09-08T06:07:32.877Z,4.45
2023-09-08T06:12:31.289Z,3.95
2023-09-08T06:17:30.982Z,4.03
2023-09-08T06:22:29.367Z,3.33
2023-09-08T06:27:27.898Z,3.50
2023-09-08T06:32:27.006Z,4.00
2023-09-08T06:37:26.736Z,3.35
2023-09-08T06:42:25.672Z,3.22
2023-09-08T06:47:30.259Z,3.75
2023-09-08T06:52:30.145Z,3.35
2023-09-08T06:57:30.501Z,3.75
2023-09-08T07:02:29.043Z,3.70
2023-09-08T07:07:27.737Z,3.42
2023-09-08T07:12:27.499Z,3.78
2023-09-08T07:17:26.807Z,3.28
2023-09-08T07:22:25.992Z,3.70
2023-09-08T07:27:24.467Z,4.05
2023-09-08T07:32:25.804Z,3.58
2023-09-08T07:37:24.509Z,3.10
2023-09-08T07:42:24.685Z,3.17
2023-09-08T07:47:24.826Z,3.17
2023-09-08T07:52:22.994Z,3.67
2023-09-08T07:57:21.209Z,4.50
2023-09-08T08:02:19.391Z,3.17
2023-09-08T08:07:19.069Z,3.72
2023-09-08T08:12:17.260Z,4.85
2023-09-08T08:17:18.505Z,3.38
2023-09-08T08:22:16.716Z,3.83
2023-09-08T08:27:16.311Z,3.67
2023-09-08T08:32:14.521Z,3.83
2023-09-08T08:37:14.468Z,3.90
2023-09-08T08:42:13.104Z,3.17
2023-09-08T08:47:13.874Z,4.25
2023-09-08T08:52:13.148Z,3.65
2023-09-08T08:57:11.387Z,3.78
2023-09-08T09:02:11.008Z,3.40
2023-09-08T09:07:10.580Z,3.72
2023-09-08T09:12:09.202Z,4.13
2023-09-08T09:17:12.971Z,3.45
2023-09-08T09:22:12.567Z,3.53
2023-09-08T09:27:11.091Z,2.88
2023-09-08T09:32:09.735Z,3.60
2023-09-08T09:37:08.109Z,3.80
2023-09-08T09:42:08.654Z,3.55
2023-09-08T09:47:08.162Z,3.38
2023-09-08T09:52:08.670Z,3.78
2023-09-08T09:57:08.754Z,3.50
2023-09-08T10:02:07.602Z,4.05
2023-09-08T10:07:06.170Z,3.90
2023-09-08T10:12:05.863Z,3.53
2023-09-08T10:17:07.836Z,3.70
2023-09-08T10:22:07.529Z,4.00
2023-09-08T10:27:07.052Z,4.22
2023-09-08T10:32:11.103Z,3.63
2023-09-08T10:37:20.768Z,3.90
2023-09-08T10:42:22.578Z,3.00
2023-09-08T10:47:24.324Z,3.85
2023-09-08T10:52:23.457Z,3.55
2023-09-08T10:57:23.538Z,3.22
2023-09-08T11:02:35.918Z,3.22
2023-09-08T11:07:34.766Z,2.90
2023-09-08T11:12:33.566Z,3.08
2023-09-08T11:17:31.861Z,2.97
2023-09-08T11:22:31.533Z,2.30
2023-09-08T11:27:29.999Z,3.13
2023-09-08T11:32:33.897Z,3.28
2023-09-08T11:37:33.683Z,2.85
2023-09-08T11:42:31.863Z,3.05
2023-09-08T11:47:30.057Z,2.55
2023-09-08T11:52:28.270Z,2.78
2023-09-08T11:57:28.009Z,3.05
2023-09-08T12:02:26.415Z,2.50
2023-09-08T12:07:24.592Z,2.70
2023-09-08T12:12:22.779Z,2.97
2023-09-08T12:17:25.728Z,2.60
2023-09-08T12:22:24.239Z,3.20
2023-09-08T12:27:22.491Z,2.67
2023-09-08T12:32:22.168Z,2.83
2023-09-08T12:37:23.998Z,2.80
2023-09-08T12:42:22.367Z,2.88
2023-09-08T12:47:22.484Z,2.38
2023-09-08T12:52:23.496Z,2.42
2023-09-08T12:57:22.057Z,2.38
2023-09-08T13:02:20.412Z,2.17
2023-09-08T13:07:20.255Z,2.55
2023-09-08T13:12:18.583Z,2.92
2023-09-08T13:17:17.282Z,2.95
2023-09-08T13:22:16.045Z,2.05
2023-09-08T13:27:19.034Z,1.77
2023-09-08T13:32:20.118Z,2.15
2023-09-08T13:37:18.542Z,2.50
2023-09-08T13:42:18.179Z,2.70
2023-09-08T13:47:19.784Z,2.40
2023-09-08T13:52:19.400Z,2.00
2023-09-08T13:57:22.165Z,2.17
2023-09-08T14:12:33.391Z,2.22
2023-09-08T14:17:33.712Z,2.15
2023-09-08T14:22:31.972Z,2.15
2023-09-08T14:27:31.556Z,2.15
2023-09-08T14:32:29.762Z,2.13
2023-09-08T14:37:27.992Z,2.78
2023-09-08T14:42:28.746Z,2.10
2023-09-08T14:47:28.410Z,2.60
2023-09-08T14:52:27.055Z,1.83
2023-09-08T14:57:25.308Z,3.20
2023-09-08T15:02:23.832Z,3.10
2023-09-08T15:07:23.512Z,2.05
2023-09-08T15:12:22.215Z,1.55
2023-09-08T15:17:20.565Z,2.70
2023-09-08T15:22:18.921Z,2.08
2023-09-08T15:27:18.463Z,2.25
2023-09-08T15:32:16.643Z,2.15
2023-09-08T15:37:14.878Z,1.60
2023-09-08T15:42:15.317Z,2.20
2023-09-08T15:47:15.041Z,1.85
2023-09-08T15:52:16.577Z,2.35
2023-09-08T15:57:15.313Z,1.90
2023-09-08T16:02:13.600Z,2.28
2023-09-08T16:07:13.264Z,1.92
2023-09-08T16:12:11.462Z,2.00
2023-09-08T16:17:09.708Z,1.70
2023-09-08T16:22:08.291Z,2.20
2023-09-08T16:27:07.849Z,2.00
2023-09-08T16:32:06.159Z,1.80
2023-09-08T16:37:04.462Z,2.33
2023-09-08T16:42:02.675Z,2.05
2023-09-08T16:47:02.338Z,2.30
2023-09-08T16:52:00.564Z,2.50
2023-09-08T16:56:59.242Z,2.72
2023-09-08T17:01:57.680Z,2.00
2023-09-08T17:06:57.284Z,1.83
2023-09-08T17:11:55.512Z,1.98
2023-09-08T17:16:53.867Z,2.25
2023-09-08T17:21:53.059Z,2.50
2023-09-08T17:26:52.629Z,1.90
2023-09-08T17:31:50.822Z,2.30
2023-09-08T17:36:49.474Z,2.20
2023-09-08T17:41:48.959Z,3.50
2023-09-08T17:46:48.761Z,2.20
2023-09-08T17:51:47.025Z,2.22
2023-09-08T17:56:45.222Z,2.67
2023-09-08T18:01:43.479Z,1.70
2023-09-08T18:06:43.404Z,1.90
2023-09-08T18:11:42.134Z,1.73
2023-09-08T18:16:40.437Z,3.28
2023-09-08T18:21:38.724Z,1.92
2023-09-08T18:26:38.322Z,2.20
2023-09-08T18:31:36.587Z,2.00
2023-09-08T18:36:35.011Z,1.85
2023-09-08T18:41:33.349Z,2.10
2023-09-08T18:46:33.021Z,2.05
2023-09-08T18:51:31.291Z,2.20
2023-09-08T18:56:29.457Z,1.98
2023-09-08T19:01:27.639Z,2.03
2023-09-08T19:06:27.258Z,1.92
2023-09-08T19:11:25.578Z,1.90
2023-09-08T19:16:23.849Z,1.65
2023-09-08T19:21:22.088Z,2.70
2023-09-08T19:26:21.653Z,2.70
2023-09-08T19:31:19.924Z,2.30
2023-09-08T19:36:18.183Z,1.88
2023-09-08T19:41:16.395Z,1.70
2023-09-08T19:46:15.995Z,1.92
2023-09-08T19:51:15.710Z,1.88
2023-09-08T19:56:15.966Z,1.55
2023-09-08T20:01:14.908Z,1.83
2023-09-08T20:06:16.869Z,1.67
2023-09-08T20:11:15.155Z,1.65
2023-09-08T20:16:14.192Z,1.85
2023-09-08T20:21:12.416Z,2.17
2023-09-08T20:26:11.971Z,1.60
2023-09-08T20:31:16.865Z,1.73
2023-09-08T20:36:17.987Z,1.50
2023-09-08T20:41:17.593Z,2.58
2023-09-08T20:46:16.516Z,2.20
2023-09-08T20:51:15.422Z,2.30
2023-09-08T20:56:13.740Z,1.90
2023-09-08T21:01:13.453Z,2.35
2023-09-08T21:06:13.479Z,2.00
2023-09-08T21:11:11.745Z,2.33
2023-09-08T21:16:09.991Z,2.47
2023-09-08T21:21:09.600Z,2.17
2023-09-08T21:26:08.265Z,2.38
2023-09-08T21:31:08.765Z,2.72
2023-09-08T21:36:07.988Z,1.95
2023-09-08T21:41:11.033Z,1.67
2023-09-08T21:46:10.482Z,2.15
2023-09-08T21:51:09.876Z,1.92
2023-09-08T21:56:08.380Z,1.90
2023-09-08T22:01:08.034Z,1.48
2023-09-08T22:06:07.366Z,2.42
2023-09-08T22:11:06.142Z,1.50
2023-09-08T22:16:05.994Z,2.17
2023-09-08T22:21:06.027Z,2.40
2023-09-08T22:26:04.371Z,2.08
2023-09-08T22:31:03.476Z,2.33
2023-09-08T22:36:01.665Z,2.40
2023-09-08T22:41:01.356Z,2.50
2023-09-08T22:45:59.548Z,2.58
2023-09-08T22:50:57.718Z,2.00
2023-09-08T22:55:56.049Z,2.50
2023-09-08T23:00:55.790Z,2.15
2023-09-08T23:05:54.376Z,2.75
2023-09-08T23:10:52.941Z,2.15
2023-09-08T23:15:52.838Z,1.75
2023-09-08T23:20:52.409Z,2.00
2023-09-08T23:25:50.871Z,2.30
2023-09-08T23:30:49.115Z,1.88
2023-09-08T23:35:47.317Z,2.10
2023-09-08T23:40:46.939Z,2.60
2023-09-08T23:45:46.328Z,2.17
2023-09-08T23:50:51.728Z,2.30
2023-09-08T23:55:51.426Z,2.63
